Time;durP1;ratioP1;P1;durP2;ratioP2;P2;SDS_P1;SDS_P2;PMS_P1;PMS_P2;Temp;Humidity;BMP_temperature;BMP_pressure;BME280_temperature;BME280_humidity;BME280_pressure;Samples;Min_cycle;Max_cycle;Signal;HPM_P1;HPM_P2
2024/04/14 00:02:23;;;;;;;4.22;3.33;;;;;;;;;;5504492;26;20445;-81
2024/04/14 00:04:55;;;;;;;4.85;3.33;;;;;;;;;;5506863;26;20463;-81
2024/04/14 00:07:34;;;;;;;3.65;2.42;;;;;;;;;;5474350;26;20020;-82
2024/04/14 00:10:06;;;;;;;4.07;3.67;;;;;;;;;;5479551;26;20001;-81
2024/04/14 00:12:40;;;;;;;4.40;2.28;;;;;;;;;;5468583;26;20005;-81
2024/04/14 00:15:21;;;;;;;4.50;2.35;;;;;;;;;;5459030;26;19997;-82
2024/04/14 00:17:53;;;;;;;3.90;2.90;;;;;;;;;;5483957;26;20005;-81
2024/04/14 00:20:28;;;;;;;5.00;3.63;;;;;;;;;;5513911;26;20096;-81
2024/04/14 00:23:03;;;;;;;6.00;4.15;;;;;;;;;;5511855;26;20004;-81
2024/04/14 00:25:38;;;;;;;7.65;5.20;;;;;;;;;;5505561;26;20080;-82
2024/04/14 00:28:12;;;;;;;7.32;4.95;;;;;;;;;;5476100;26;20005;-81
2024/04/14 00:30:49;;;;;;;7.13;4.10;;;;;;;;;;5510616;26;20079;-81
2024/04/14 00:33:23;;;;;;;7.80;6.32;;;;;;;;;;5476093;26;20341;-81
2024/04/14 00:36:00;;;;;;;2.75;2.30;;;;;;;;;;5508892;26;20348;-81
2024/04/14 00:38:35;;;;;;;5.25;2.70;;;;;;;;;;5515149;26;20045;-82
2024/04/14 00:41:14;;;;;;;3.33;1.83;;;;;;;;;;5508182;26;20013;-81
2024/04/14 00:43:46;;;;;;;3.17;2.22;;;;;;;;;;5456364;26;20087;-81
2024/04/14 00:46:24;;;;;;;4.72;2.22;;;;;;;;;;5454807;26;20122;-81
2024/04/14 00:49:00;;;;;;;5.55;3.08;;;;;;;;;;5492558;26;20001;-81
2024/04/14 00:51:35;;;;;;;3.88;3.05;;;;;;;;;;5514827;26;20851;-81
2024/04/14 00:54:17;;;;;;;6.03;3.85;;;;;;;;;;5484969;26;20001;-81
2024/04/14 00:56:57;;;;;;;5.03;3.17;;;;;;;;;;5450051;26;20529;-81
2024/04/14 00:59:31;;;;;;;6.38;4.75;;;;;;;;;;5488033;26;20456;-81
2024/04/14 01:02:08;;;;;;;7.50;6.00;;;;;;;;;;5513550;26;20024;-81
2024/04/14 01:04:40;;;;;;;6.55;5.20;;;;;;;;;;5482708;26;20012;-81
2024/04/14 01:07:15;;;;;;;4.55;3.47;;;;;;;;;;5500114;26;20018;-81
2024/04/14 01:09:46;;;;;;;;;;;;;;;;;;5509061;26;20088;-82
2024/04/14 01:12:24;;;;;;;4.93;2.70;;;;;;;;;;5480242;26;20013;-81
2024/04/14 01:14:57;;;;;;;4.53;2.25;;;;;;;;;;5513609;26;20001;-81
2024/04/14 01:17:32;;;;;;;6.28;3.25;;;;;;;;;;5486726;26;21793;-81
2024/04/14 01:20:06;;;;;;;7.30;5.43;;;;;;;;;;5501362;26;20056;-81
2024/04/14 01:22:42;;;;;;;4.18;2.33;;;;;;;;;;5498412;26;20506;-81
2024/04/14 01:25:17;;;;;;;5.95;2.20;;;;;;;;;;5509848;26;20086;-81
2024/04/14 01:27:53;;;;;;;4.68;2.50;;;;;;;;;;5522790;26;20005;-81
2024/04/14 01:30:27;;;;;;;5.95;2.65;;;;;;;;;;5465370;26;20121;-81
2024/04/14 01:33:03;;;;;;;6.37;2.80;;;;;;;;;;5488372;26;20023;-81
2024/04/14 01:35:39;;;;;;;7.28;2.58;;;;;;;;;;5515876;26;20704;-81
2024/04/14 01:38:17;;;;;;;4.03;2.35;;;;;;;;;;5487787;26;20021;-81
2024/04/14 01:41:01;;;;;;;4.53;2.58;;;;;;;;;;5471511;26;20010;-81
2024/04/14 01:43:41;;;;;;;4.88;2.50;;;;;;;;;;5469120;26;20378;-82
2024/04/14 01:46:15;;;;;;;5.10;2.65;;;;;;;;;;5523438;26;20015;-81
2024/04/14 01:48:53;;;;;;;4.90;2.50;;;;;;;;;;5492852;26;20013;-83
2024/04/14 01:51:27;;;;;;;4.00;2.10;;;;;;;;;;5467079;26;20017;-81
2024/04/14 01:54:01;;;;;;;4.72;2.40;;;;;;;;;;5509921;26;20001;-81
2024/04/14 01:56:40;;;;;;;6.05;2.47;;;;;;;;;;5515774;26;20009;-81
2024/04/14 01:59:17;;;;;;;7.10;2.90;;;;;;;;;;5489345;26;20024;-81
2024/04/14 02:01:49;;;;;;;8.00;3.88;;;;;;;;;;5510523;26;20016;-82
2024/04/14 02:04:24;;;;;;;3.67;2.00;;;;;;;;;;5516021;26;20001;-82
2024/04/14 02:06:59;;;;;;;5.60;2.30;;;;;;;;;;5518543;26;20017;-81
2024/04/14 02:09:36;;;;;;;4.75;2.13;;;;;;;;;;5510471;26;20067;-81
2024/04/14 02:12:13;;;;;;;4.65;2.22;;;;;;;;;;5519684;26;20015;-81
2024/04/14 02:14:49;;;;;;;6.07;2.30;;;;;;;;;;5516732;26;20056;-82
2024/04/14 02:17:22;;;;;;;4.50;2.15;;;;;;;;;;5512347;26;20016;-81
2024/04/14 02:19:56;;;;;;;4.10;2.42;;;;;;;;;;5515255;26;20006;-81
2024/04/14 02:22:35;;;;;;;6.55;2.05;;;;;;;;;;5520079;26;20765;-81
2024/04/14 02:25:10;;;;;;;7.97;2.63;;;;;;;;;;5522616;26;20009;-82
2024/04/14 02:27:47;;;;;;;6.63;2.33;;;;;;;;;;5512934;26;20009;-81
2024/04/14 02:30:25;;;;;;;5.65;2.03;;;;;;;;;;5485335;26;20024;-81
2024/04/14 02:32:57;;;;;;;5.15;2.05;;;;;;;;;;5511911;26;20001;-81
2024/04/14 02:35:36;;;;;;;6.43;2.20;;;;;;;;;;5537330;26;20818;-81
2024/04/14 02:38:08;;;;;;;4.72;3.10;;;;;;;;;;5516959;26;20028;-81
2024/04/14 02:40:42;;;;;;;6.25;2.40;;;;;;;;;;5521253;26;20349;-82
2024/04/14 02:43:25;;;;;;;5.20;2.60;;;;;;;;;;5517127;26;20018;-82
2024/04/14 02:46:01;;;;;;;7.20;2.67;;;;;;;;;;5513780;26;20011;-81
2024/04/14 02:48:33;;;;;;;6.63;2.42;;;;;;;;;;5514204;26;20021;-81
2024/04/14 02:51:11;;;;;;;6.88;2.25;;;;;;;;;;5545460;26;20020;-81
2024/04/14 02:53:47;;;;;;;6.43;2.80;;;;;;;;;;5518573;26;20005;-81
2024/04/14 02:56:25;;;;;;;5.95;2.78;;;;;;;;;;5543763;26;20019;-81
2024/04/14 02:59:01;;;;;;;5.95;2.75;;;;;;;;;;5510784;26;20001;-81
2024/04/14 03:01:37;;;;;;;5.72;2.45;;;;;;;;;;5540536;26;20493;-81
2024/04/14 03:04:15;;;;;;;9.45;3.20;;;;;;;;;;5506289;26;20005;-81
2024/04/14 03:06:50;;;;;;;8.18;3.03;;;;;;;;;;5516955;26;20004;-82
2024/04/14 03:09:24;;;;;;;6.80;2.85;;;;;;;;;;5511283;26;20029;-81
2024/04/14 03:12:01;;;;;;;6.63;3.72;;;;;;;;;;5521474;26;20001;-81
2024/04/14 03:14:37;;;;;;;7.30;2.75;;;;;;;;;;5462738;26;20015;-81
2024/04/14 03:17:12;;;;;;;5.00;2.75;;;;;;;;;;5507289;26;20351;-81
2024/04/14 03:19:47;;;;;;;6.82;3.00;;;;;;;;;;5476127;26;20068;-81
2024/04/14 03:22:22;;;;;;;6.20;2.80;;;;;;;;;;5495960;26;20005;-81
2024/04/14 03:24:54;;;;;;;10.35;3.20;;;;;;;;;;5490365;26;20002;-81
2024/04/14 03:27:33;;;;;;;4.82;2.90;;;;;;;;;;5491985;26;20001;-81
2024/04/14 03:30:10;;;;;;;7.28;3.55;;;;;;;;;;5510296;26;20001;-81
2024/04/14 03:32:48;;;;;;;5.75;3.13;;;;;;;;;;5503158;26;20032;-81
2024/04/14 03:35:23;;;;;;;8.57;3.80;;;;;;;;;;5490942;26;20016;-81
2024/04/14 03:37:58;;;;;;;5.97;2.90;;;;;;;;;;5518677;26;20006;-81
2024/04/14 03:40:35;;;;;;;7.97;3.50;;;;;;;;;;5490333;26;20113;-81
2024/04/14 03:43:15;;;;;;;6.03;3.53;;;;;;;;;;5514182;26;20005;-81
2024/04/14 03:45:53;;;;;;;7.45;3.15;;;;;;;;;;5524842;26;20299;-81
2024/04/14 03:48:32;;;;;;;7.70;3.30;;;;;;;;;;5480258;26;20003;-81
2024/04/14 03:51:06;;;;;;;;;;;;;;;;;;5516818;26;20009;-81
2024/04/14 03:53:40;;;;;;;5.93;3.30;;;;;;;;;;5502652;26;19922;-81
2024/04/14 03:56:17;;;;;;;6.43;3.92;;;;;;;;;;5482892;26;20019;-81
2024/04/14 03:58:52;;;;;;;5.90;2.80;;;;;;;;;;5513106;26;20037;-81
2024/04/14 04:01:29;;;;;;;8.10;3.30;;;;;;;;;;5479907;26;20442;-81
2024/04/14 04:04:06;;;;;;;9.45;3.60;;;;;;;;;;5531845;26;20016;-81
2024/04/14 04:06:41;;;;;;;;;;;;;;;;;;5551980;26;20019;-81
2024/04/14 04:09:15;;;;;;;9.95;4.22;;;;;;;;;;5488309;26;19925;-82
2024/04/14 04:11:59;;;;;;;6.03;3.28;;;;;;;;;;5547165;26;19996;-82
2024/04/14 04:14:32;;;;;;;9.70;3.47;;;;;;;;;;5523647;26;20018;-81
2024/04/14 04:17:11;;;;;;;8.50;3.60;;;;;;;;;;5549020;26;20322;-81
2024/04/14 04:19:44;;;;;;;6.22;3.05;;;;;;;;;;5549545;26;20001;-81
2024/04/14 04:22:27;;;;;;;7.32;3.75;;;;;;;;;;5525674;26;20004;-81
2024/04/14 04:24:58;;;;;;;12.45;4.00;;;;;;;;;;5518485;26;20013;-81
2024/04/14 04:27:35;;;;;;;8.85;4.30;;;;;;;;;;5551052;26;20704;-82
2024/04/14 04:30:09;;;;;;;7.75;3.13;;;;;;;;;;5528315;26;20055;-82
2024/04/14 04:32:48;;;;;;;7.63;4.18;;;;;;;;;;5548476;26;20004;-81
2024/04/14 04:35:21;;;;;;;8.27;3.25;;;;;;;;;;5524118;26;20082;-82
2024/04/14 04:37:59;;;;;;;8.57;3.60;;;;;;;;;;5524923;26;20100;-81
2024/04/14 04:40:33;;;;;;;8.63;3.60;;;;;;;;;;5537567;26;20000;-81
2024/04/14 04:43:08;;;;;;;6.78;3.45;;;;;;;;;;5556681;26;20009;-81
2024/04/14 04:45:45;;;;;;;6.55;3.42;;;;;;;;;;5555369;26;20057;-81
2024/04/14 04:48:24;;;;;;;6.82;3.50;;;;;;;;;;5557946;26;20029;-81
2024/04/14 04:50:58;;;;;;;8.23;3.53;;;;;;;;;;5523620;26;20531;-81
2024/04/14 04:53:33;;;;;;;7.80;3.72;;;;;;;;;;5496088;26;20015;-80
2024/04/14 04:56:09;;;;;;;9.40;4.38;;;;;;;;;;5550768;26;20008;-80
2024/04/14 04:58:45;;;;;;;9.73;3.90;;;;;;;;;;5551896;26;20004;-81
2024/04/14 05:01:17;;;;;;;10.48;4.13;;;;;;;;;;5516228;26;20028;-80
2024/04/14 05:04:01;;;;;;;9.13;4.18;;;;;;;;;;5510307;26;20110;-81
2024/04/14 05:06:38;;;;;;;7.25;4.15;;;;;;;;;;5473220;26;20009;-81
2024/04/14 05:09:18;;;;;;;6.32;3.58;;;;;;;;;;5478195;26;20017;-80
2024/04/14 05:11:52;;;;;;;9.60;3.28;;;;;;;;;;5518139;26;20079;-81
2024/04/14 05:14:27;;;;;;;9.80;4.28;;;;;;;;;;5519233;26;20012;-81
2024/04/14 05:16:59;;;;;;;7.20;3.92;;;;;;;;;;5479141;26;20005;-80
2024/04/14 05:19:37;;;;;;;9.40;4.57;;;;;;;;;;5516599;26;20005;-80
2024/04/14 05:22:09;;;;;;;8.73;4.45;;;;;;;;;;5499466;26;20057;-80
2024/04/14 05:24:44;;;;;;;10.40;5.72;;;;;;;;;;5515883;26;21167;-80
2024/04/14 05:27:19;;;;;;;8.38;4.38;;;;;;;;;;5481644;26;20059;-80
2024/04/14 05:30:00;;;;;;;6.63;3.78;;;;;;;;;;5479811;26;20021;-83
2024/04/14 05:32:34;;;;;;;8.65;3.95;;;;;;;;;;5454687;26;20012;-81
2024/04/14 05:35:15;;;;;;;6.68;4.00;;;;;;;;;;5514946;26;20023;-81
2024/04/14 05:37:51;;;;;;;8.15;3.80;;;;;;;;;;5489848;26;20844;-81
2024/04/14 05:40:31;;;;;;;7.93;4.10;;;;;;;;;;5455599;26;20024;-81
2024/04/14 05:43:05;;;;;;;9.00;4.13;;;;;;;;;;5485188;26;20010;-81
2024/04/14 05:45:39;;;;;;;7.45;3.88;;;;;;;;;;5453965;26;20024;-81
2024/04/14 05:48:12;;;;;;;;;;;;;;;;;;5483746;26;20474;-83
2024/04/14 05:50:53;;;;;;;12.13;4.00;;;;;;;;;;5486955;26;20000;-82
2024/04/14 05:53:27;;;;;;;6.30;3.78;;;;;;;;;;5494677;26;20013;-82
2024/04/14 05:56:01;;;;;;;8.65;4.03;;;;;;;;;;5482401;26;20005;-82
2024/04/14 05:58:35;;;;;;;9.48;4.22;;;;;;;;;;5475592;26;20016;-83
2024/04/14 06:01:11;;;;;;;8.60;4.28;;;;;;;;;;5488556;26;20009;-82
2024/04/14 06:03:45;;;;;;;7.70;4.18;;;;;;;;;;5517812;26;20009;-80
2024/04/14 06:06:27;;;;;;;9.80;4.55;;;;;;;;;;5491205;26;20005;-81
2024/04/14 06:09:04;;;;;;;7.57;3.47;;;;;;;;;;5473350;26;20071;-79
2024/04/14 06:11:40;;;;;;;9.65;4.00;;;;;;;;;;5501060;26;20005;-81
2024/04/14 06:14:17;;;;;;;8.60;3.72;;;;;;;;;;5524803;26;20020;-83
2024/04/14 06:16:49;;;;;;;6.85;4.15;;;;;;;;;;5486625;26;20028;-80
2024/04/14 06:19:24;;;;;;;8.90;3.63;;;;;;;;;;5521828;26;20439;-80
2024/04/14 06:21:59;;;;;;;8.75;3.78;;;;;;;;;;5517952;26;20002;-80
2024/04/14 06:24:35;;;;;;;6.80;2.60;;;;;;;;;;5521073;26;20016;-80
2024/04/14 06:27:09;;;;;;;8.32;2.97;;;;;;;;;;5489363;26;20020;-79
2024/04/14 06:29:43;;;;;;;7.18;2.90;;;;;;;;;;5513489;26;20087;-80
2024/04/14 06:32:16;;;;;;;6.57;2.25;;;;;;;;;;5522539;26;20068;-83
2024/04/14 06:34:55;;;;;;;7.85;2.50;;;;;;;;;;5486018;26;20339;-81
2024/04/14 06:37:57;;;;;;;6.82;2.60;;;;;;;;;;5615171;21;20183;-80
2024/04/14 06:40:35;;;;;;;6.15;2.17;;;;;;;;;;5400167;27;20032;-81
2024/04/14 06:43:15;;;;;;;6.10;2.67;;;;;;;;;;5459915;27;20005;-80
2024/04/14 06:45:53;;;;;;;6.63;2.80;;;;;;;;;;5427368;27;20006;-82
2024/04/14 06:51:34;;;;;;;5.30;2.33;;;;;;;;;;5597037;21;21067;-89
2024/04/14 06:54:08;;;;;;;6.80;1.83;;;;;;;;;;5639135;21;20029;-83
2024/04/14 06:56:45;;;;;;;6.68;1.95;;;;;;;;;;5437515;27;20010;-79
2024/04/14 06:59:22;;;;;;;5.78;1.92;;;;;;;;;;5449969;26;20419;-80
2024/04/14 07:02:01;;;;;;;4.93;1.98;;;;;;;;;;5461848;26;20010;-78
2024/04/14 07:04:37;;;;;;;5.68;2.22;;;;;;;;;;5484651;26;20002;-79
2024/04/14 07:07:12;;;;;;;7.35;2.75;;;;;;;;;;5432113;26;20024;-78
2024/04/14 07:09:45;;;;;;;5.15;2.00;;;;;;;;;;5495848;26;20359;-81
2024/04/14 07:12:22;;;;;;;8.32;2.97;;;;;;;;;;5491331;26;20010;-79
2024/04/14 07:14:54;;;;;;;6.53;2.97;;;;;;;;;;5501867;26;20064;-79
2024/04/14 07:17:33;;;;;;;6.93;2.85;;;;;;;;;;5466062;27;20005;-80
2024/04/14 07:20:05;;;;;;;5.30;2.78;;;;;;;;;;5491092;26;20061;-78
2024/04/14 07:22:46;;;;;;;7.97;2.97;;;;;;;;;;5444222;27;20001;-79
2024/04/14 07:25:20;;;;;;;6.00;2.83;;;;;;;;;;5431269;27;20115;-78
2024/04/14 07:27:58;;;;;;;6.45;2.63;;;;;;;;;;5449311;26;20010;-78
2024/04/14 07:30:30;;;;;;;6.57;1.98;;;;;;;;;;5492553;26;20006;-78
2024/04/14 07:33:05;;;;;;;8.00;2.13;;;;;;;;;;5446920;27;20459;-79
2024/04/14 07:35:41;;;;;;;6.57;1.98;;;;;;;;;;5471659;26;20069;-78
2024/04/14 07:38:16;;;;;;;7.72;2.25;;;;;;;;;;5457585;26;20029;-79
2024/04/14 07:40:50;;;;;;;6.90;1.98;;;;;;;;;;5495641;26;20385;-80
2024/04/14 07:43:32;;;;;;;4.60;2.20;;;;;;;;;;5468311;26;20002;-79
2024/04/14 07:46:05;;;;;;;5.53;1.90;;;;;;;;;;5499102;26;20398;-79
2024/04/14 07:48:45;;;;;;;6.30;1.88;;;;;;;;;;5492757;26;19997;-80
2024/04/14 07:51:18;;;;;;;8.57;1.90;;;;;;;;;;5469558;27;20009;-79
2024/04/14 07:53:53;;;;;;;7.05;2.55;;;;;;;;;;5468925;26;20024;-79
2024/04/14 07:56:28;;;;;;;6.40;2.20;;;;;;;;;;5466186;27;20005;-80
2024/04/14 07:59:07;;;;;;;5.47;2.00;;;;;;;;;;5443202;27;20037;-80
2024/04/14 08:01:39;;;;;;;4.55;1.52;;;;;;;;;;5448494;26;20009;-79
2024/04/14 08:04:16;;;;;;;8.02;2.30;;;;;;;;;;5496487;26;20002;-80
2024/04/14 08:06:52;;;;;;;7.30;2.60;;;;;;;;;;5497013;26;20013;-80
2024/04/14 08:09:29;;;;;;;5.22;1.75;;;;;;;;;;5457349;27;20099;-80
2024/04/14 08:12:01;;;;;;;6.38;2.08;;;;;;;;;;5467861;26;20020;-79
2024/04/14 08:14:39;;;;;;;7.00;2.13;;;;;;;;;;5442246;26;19997;-80
2024/04/14 08:17:14;;;;;;;7.78;2.08;;;;;;;;;;5448796;26;20029;-79
2024/04/14 08:19:52;;;;;;;5.78;2.20;;;;;;;;;;5496407;26;20001;-80
2024/04/14 08:22:24;;;;;;;6.55;1.92;;;;;;;;;;5491712;26;20083;-80
2024/04/14 08:25:02;;;;;;;6.40;1.50;;;;;;;;;;5462330;26;20001;-79
2024/04/14 08:27:38;;;;;;;5.85;1.88;;;;;;;;;;5488276;26;20034;-80
2024/04/14 08:30:17;;;;;;;5.65;1.70;;;;;;;;;;5423115;26;20016;-79
2024/04/14 08:32:49;;;;;;;6.22;2.00;;;;;;;;;;5469972;27;20017;-80
2024/04/14 08:35:27;;;;;;;8.40;2.53;;;;;;;;;;5491410;26;20009;-80
2024/04/14 08:38:01;;;;;;;5.65;1.83;;;;;;;;;;5462876;27;20019;-80
2024/04/14 08:40:36;;;;;;;5.45;1.75;;;;;;;;;;5494923;26;20010;-80
2024/04/14 08:43:12;;;;;;;;;;;;;;;;;;5465285;27;19997;-80
2024/04/14 08:45:58;;;;;;;8.82;2.95;;;;;;;;;;5460724;26;19927;-80
2024/04/14 08:48:36;;;;;;;5.82;1.85;;;;;;;;;;5491802;27;20021;-79
2024/04/14 08:51:13;;;;;;;7.20;2.30;;;;;;;;;;5432866;26;20045;-80
2024/04/14 08:53:48;;;;;;;6.40;2.13;;;;;;;;;;5487876;26;20007;-80
2024/04/14 08:56:25;;;;;;;;;;;;;;;;;;5439331;27;20021;-80
2024/04/14 08:59:01;;;;;;;8.70;2.05;;;;;;;;;;5438190;26;19938;-80
2024/04/14 09:01:38;;;;;;;6.15;1.95;;;;;;;;;;5488658;26;20010;-80
2024/04/14 09:04:20;;;;;;;7.35;2.33;;;;;;;;;;5483999;27;20005;-80
2024/04/14 09:06:59;;;;;;;5.70;1.88;;;;;;;;;;5461175;26;20002;-80
2024/04/14 09:09:32;;;;;;;3.85;1.52;;;;;;;;;;5429823;27;20010;-80
2024/04/14 09:12:12;;;;;;;5.40;1.67;;;;;;;;;;5492632;27;20002;-80
2024/04/14 09:14:48;;;;;;;3.97;1.67;;;;;;;;;;5461909;26;20020;-80
2024/04/14 09:17:28;;;;;;;7.22;2.10;;;;;;;;;;5465051;27;20017;-80
2024/04/14 09:20:00;;;;;;;4.20;1.60;;;;;;;;;;5466242;27;20471;-78
2024/04/14 09:22:41;;;;;;;5.30;1.95;;;;;;;;;;5459510;27;20037;-81
2024/04/14 09:25:18;;;;;;;6.37;2.00;;;;;;;;;;5487320;26;20021;-81
2024/04/14 09:28:06;;;;;;;5.05;1.58;;;;;;;;;;5460968;26;20017;-80
2024/04/14 09:30:41;;;;;;;5.80;1.80;;;;;;;;;;5452902;27;20857;-79
2024/04/14 09:33:19;;;;;;;3.25;1.17;;;;;;;;;;5427109;27;20445;-79
2024/04/14 09:35:53;;;;;;;3.08;1.35;;;;;;;;;;5482383;26;20021;-79
2024/04/14 09:38:30;;;;;;;5.93;1.70;;;;;;;;;;5456141;27;20105;-80
2024/04/14 09:41:08;;;;;;;4.57;1.70;;;;;;;;;;5486035;26;20006;-80
2024/04/14 09:43:46;;;;;;;5.60;1.70;;;;;;;;;;5456650;27;20049;-80
2024/04/14 09:46:25;;;;;;;5.65;1.40;;;;;;;;;;5481832;26;20025;-80
2024/04/14 09:49:04;;;;;;;4.90;1.50;;;;;;;;;;5488710;26;20041;-80
2024/04/14 09:51:39;;;;;;;6.68;1.77;;;;;;;;;;5484506;27;20002;-80
2024/04/14 09:54:14;;;;;;;3.90;1.30;;;;;;;;;;5420488;26;19998;-83
2024/04/14 09:56:55;;;;;;;4.40;1.75;;;;;;;;;;5474536;26;20025;-81
2024/04/14 09:59:31;;;;;;;4.85;1.52;;;;;;;;;;5482318;26;20002;-81
2024/04/14 10:02:05;;;;;;;5.75;1.52;;;;;;;;;;5471984;26;20002;-82
2024/04/14 10:04:47;;;;;;;4.03;1.70;;;;;;;;;;5433453;27;20391;-80
2024/04/14 10:07:21;;;;;;;7.45;1.90;;;;;;;;;;5481559;26;20018;-80
2024/04/14 10:09:59;;;;;;;4.05;1.15;;;;;;;;;;5456271;27;20013;-80
2024/04/14 10:12:36;;;;;;;5.95;1.35;;;;;;;;;;5414538;27;20326;-80
2024/04/14 10:15:12;;;;;;;5.72;1.30;;;;;;;;;;5460821;26;20009;-80
2024/04/14 10:17:49;;;;;;;6.00;1.65;;;;;;;;;;5483616;26;20877;-80
2024/04/14 10:20:28;;;;;;;4.55;1.65;;;;;;;;;;5462669;26;20009;-80
2024/04/14 10:23:05;;;;;;;3.53;1.42;;;;;;;;;;5464528;26;22388;-80
2024/04/14 10:25:47;;;;;;;6.80;1.70;;;;;;;;;;5458354;26;20889;-80
2024/04/14 10:28:23;;;;;;;3.17;1.40;;;;;;;;;;5458126;26;20016;-80
2024/04/14 10:31:01;;;;;;;3.17;1.00;;;;;;;;;;5467939;26;20463;-80
2024/04/14 10:33:38;;;;;;;4.35;1.25;;;;;;;;;;5435244;27;20008;-80
2024/04/14 10:36:16;;;;;;;;;;;;;;;;;;5485902;26;19991;-80
2024/04/14 10:38:52;;;;;;;5.18;1.95;;;;;;;;;;5484412;26;19934;-81
2024/04/14 10:41:28;;;;;;;6.55;1.42;;;;;;;;;;5488483;27;20009;-80
2024/04/14 10:44:02;;;;;;;4.05;1.48;;;;;;;;;;5486577;26;20004;-80
2024/04/14 10:46:36;;;;;;;2.67;1.30;;;;;;;;;;5486704;26;20010;-81
2024/04/14 10:49:10;;;;;;;5.78;1.50;;;;;;;;;;5487012;26;20029;-80
2024/04/14 10:51:45;;;;;;;5.97;1.50;;;;;;;;;;5446048;27;20091;-81
2024/04/14 10:54:21;;;;;;;6.07;1.63;;;;;;;;;;5450391;26;20021;-80
2024/04/14 10:56:59;;;;;;;4.30;1.23;;;;;;;;;;5463829;27;20005;-80
2024/04/14 10:59:32;;;;;;;5.15;1.52;;;;;;;;;;5488783;26;20020;-80
2024/04/14 11:02:07;;;;;;;2.70;1.17;;;;;;;;;;5430712;27;20002;-80
2024/04/14 11:04:44;;;;;;;7.32;2.05;;;;;;;;;;5448125;27;20010;-82
2024/04/14 11:07:19;;;;;;;5.32;1.33;;;;;;;;;;5455201;27;20431;-80
2024/04/14 11:09:59;;;;;;;5.05;1.40;;;;;;;;;;5498811;26;20582;-80
2024/04/14 11:12:36;;;;;;;4.90;1.98;;;;;;;;;;5445892;27;20097;-80
2024/04/14 11:15:12;;;;;;;4.53;1.67;;;;;;;;;;5462383;26;20013;-79
2024/04/14 11:17:47;;;;;;;5.15;1.42;;;;;;;;;;5484935;26;20016;-79
2024/04/14 11:20:23;;;;;;;3.17;1.42;;;;;;;;;;5485876;26;20010;-79
2024/04/14 11:23:07;;;;;;;4.25;1.58;;;;;;;;;;5450821;27;20006;-80
2024/04/14 11:25:42;;;;;;;3.42;1.25;;;;;;;;;;5456961;27;20015;-79
2024/04/14 11:28:22;;;;;;;5.90;2.28;;;;;;;;;;5454446;27;20005;-80
2024/04/14 11:30:56;;;;;;;5.20;1.60;;;;;;;;;;5471049;26;20176;-81
2024/04/14 11:33:31;;;;;;;5.25;1.65;;;;;;;;;;5484947;26;20041;-80
2024/04/14 11:36:09;;;;;;;4.63;1.38;;;;;;;;;;5459025;26;20002;-80
2024/04/14 11:38:43;;;;;;;5.63;1.95;;;;;;;;;;5454929;26;20013;-81
2024/04/14 11:41:22;;;;;;;4.65;1.60;;;;;;;;;;5458617;27;20013;-80
2024/04/14 11:43:57;;;;;;;4.80;1.40;;;;;;;;;;5460636;26;20021;-80
2024/04/14 11:46:31;;;;;;;4.75;1.02;;;;;;;;;;5486126;26;20058;-80
2024/04/14 11:49:10;;;;;;;7.13;1.30;;;;;;;;;;5480333;26;20026;-80
2024/04/14 11:51:46;;;;;;;7.80;1.70;;;;;;;;;;5453332;27;20786;-79
2024/04/14 11:54:21;;;;;;;5.00;1.20;;;;;;;;;;5495930;26;20017;-83
2024/04/14 11:57:00;;;;;;;2.78;1.10;;;;;;;;;;5462559;26;19997;-80
2024/04/14 11:59:38;;;;;;;2.83;1.30;;;;;;;;;;5474241;26;20013;-81
2024/04/14 12:02:10;;;;;;;5.22;2.00;;;;;;;;;;5474708;26;20371;-80
2024/04/14 12:04:52;;;;;;;4.75;1.20;;;;;;;;;;5440286;27;20057;-80
2024/04/14 12:07:31;;;;;;;3.72;1.05;;;;;;;;;;5457292;27;20057;-81
2024/04/14 12:10:06;;;;;;;3.60;1.30;;;;;;;;;;5471849;26;20002;-81
2024/04/14 12:12:45;;;;;;;4.00;1.20;;;;;;;;;;5421316;27;20049;-80
2024/04/14 12:15:20;;;;;;;3.65;1.20;;;;;;;;;;5453234;26;21250;-83
2024/04/14 12:17:57;;;;;;;5.57;1.73;;;;;;;;;;5450183;27;20009;-81
2024/04/14 12:20:32;;;;;;;3.17;1.00;;;;;;;;;;5422223;27;20017;-81
2024/04/14 12:23:06;;;;;;;3.50;1.33;;;;;;;;;;5477946;26;20029;-81
2024/04/14 12:25:42;;;;;;;4.50;1.48;;;;;;;;;;5480099;26;20001;-82
2024/04/14 12:28:17;;;;;;;2.05;0.95;;;;;;;;;;5479277;26;20083;-82
2024/04/14 12:30:55;;;;;;;4.07;1.58;;;;;;;;;;5477845;26;20005;-81
2024/04/14 12:33:27;;;;;;;6.32;1.33;;;;;;;;;;5480906;26;20013;-81
2024/04/14 12:36:02;;;;;;;4.60;1.67;;;;;;;;;;5451641;27;20028;-81
2024/04/14 12:38:38;;;;;;;3.85;1.50;;;;;;;;;;5475864;26;20006;-81
2024/04/14 12:41:14;;;;;;;4.80;1.52;;;;;;;;;;5446619;26;20017;-83
2024/04/14 12:43:49;;;;;;;5.22;1.35;;;;;;;;;;5441567;27;20016;-79
2024/04/14 12:46:27;;;;;;;5.10;1.60;;;;;;;;;;5482059;26;20088;-85
2024/04/14 12:49:03;;;;;;;3.85;1.25;;;;;;;;;;5458979;26;20006;-85
2024/04/14 12:51:40;;;;;;;5.28;1.40;;;;;;;;;;5443014;26;20014;-86
2024/04/14 12:54:15;;;;;;;3.92;1.20;;;;;;;;;;5469464;26;20086;-85
2024/04/14 12:56:51;;;;;;;5.57;1.80;;;;;;;;;;5448437;26;20017;-86
2024/04/14 12:59:27;;;;;;;5.53;1.50;;;;;;;;;;5454543;26;20001;-85
2024/04/14 13:02:01;;;;;;;4.78;1.48;;;;;;;;;;5451024;27;20005;-82
2024/04/14 13:04:36;;;;;;;4.60;1.38;;;;;;;;;;5450786;26;20021;-84
2024/04/14 13:07:14;;;;;;;7.35;2.20;;;;;;;;;;5477951;26;20362;-83
2024/04/14 13:09:48;;;;;;;3.78;1.90;;;;;;;;;;5459616;26;20406;-87
2024/04/14 13:12:25;;;;;;;5.28;1.67;;;;;;;;;;5494638;26;20025;-80
2024/04/14 13:15:04;;;;;;;4.60;1.48;;;;;;;;;;5445326;26;20080;-83
2024/04/14 13:17:48;;;;;;;4.38;1.40;;;;;;;;;;5471014;26;20038;-80
2024/04/14 13:20:24;;;;;;;4.60;1.60;;;;;;;;;;5504567;26;20012;-84
2024/04/14 13:22:59;;;;;;;3.55;1.42;;;;;;;;;;5460364;26;20029;-83
2024/04/14 13:25:33;;;;;;;4.22;1.38;;;;;;;;;;5470925;26;20013;-82
2024/04/14 13:28:12;;;;;;;3.60;1.30;;;;;;;;;;5436684;27;20012;-77
2024/04/14 13:30:50;;;;;;;4.35;1.80;;;;;;;;;;5491724;26;20021;-79
2024/04/14 13:33:24;;;;;;;3.65;1.40;;;;;;;;;;5467928;26;20010;-78
2024/04/14 13:35:59;;;;;;;4.43;1.35;;;;;;;;;;5499426;26;20009;-79
2024/04/14 13:38:34;;;;;;;3.90;1.13;;;;;;;;;;5495465;26;20019;-77
2024/04/14 13:41:09;;;;;;;4.72;1.52;;;;;;;;;;5495118;26;20013;-83
2024/04/14 13:43:44;;;;;;;4.78;1.40;;;;;;;;;;5495451;26;20014;-81
2024/04/14 13:46:23;;;;;;;5.40;1.33;;;;;;;;;;5459647;26;20974;-78
2024/04/14 13:48:59;;;;;;;4.55;1.40;;;;;;;;;;5444740;26;20004;-79
2024/04/14 13:51:33;;;;;;;3.22;1.30;;;;;;;;;;5504513;26;20058;-79
2024/04/14 13:54:12;;;;;;;3.72;1.00;;;;;;;;;;5477566;26;20006;-81
2024/04/14 13:56:47;;;;;;;5.15;1.83;;;;;;;;;;5468080;26;20002;-82
2024/04/14 13:59:21;;;;;;;3.60;1.20;;;;;;;;;;5463993;27;20071;-81
2024/04/14 14:02:02;;;;;;;3.17;1.10;;;;;;;;;;5463632;27;20020;-86
2024/04/14 14:04:38;;;;;;;4.35;1.50;;;;;;;;;;5481763;26;20022;-85
2024/04/14 14:07:15;;;;;;;5.13;1.77;;;;;;;;;;5423943;27;20026;-83
2024/04/14 14:09:55;;;;;;;4.07;1.33;;;;;;;;;;5489280;26;20016;-84
2024/04/14 14:12:31;;;;;;;4.50;1.13;;;;;;;;;;5445673;27;20001;-83
2024/04/14 14:15:07;;;;;;;4.20;1.15;;;;;;;;;;5448527;26;20005;-82
2024/04/14 14:20:35;;;;;;;5.53;1.30;;;;;;;;;;5462378;21;20033;-79
2024/04/14 14:23:10;;;;;;;2.55;1.00;;;;;;;;;;5801334;22;20003;-91
2024/04/14 14:25:52;;;;;;;2.63;1.00;;;;;;;;;;5373813;27;22122;-91
2024/04/14 14:28:27;;;;;;;5.10;1.20;;;;;;;;;;5382081;27;20044;-91
2024/04/14 14:31:04;;;;;;;3.83;1.23;;;;;;;;;;5480913;22;20010;-91
2024/04/14 14:36:41;;;;;;;3.50;1.13;;;;;;;;;;5406753;27;20022;-91
2024/04/14 14:45:24;;;;;;;3.28;1.10;;;;;;;;;;5645548;22;20014;-90
2024/04/14 14:47:59;;;;;;;4.13;1.20;;;;;;;;;;5399815;27;20014;-91
2024/04/14 14:50:39;;;;;;;5.03;1.52;;;;;;;;;;5433215;27;20007;-90
2024/04/14 14:53:12;;;;;;;4.55;1.45;;;;;;;;;;5408025;27;20002;-89
2024/04/14 14:55:48;;;;;;;2.97;0.95;;;;;;;;;;5420323;27;20010;-90
2024/04/14 14:58:21;;;;;;;5.20;1.15;;;;;;;;;;5426680;27;20006;-90
2024/04/14 15:00:56;;;;;;;3.25;0.95;;;;;;;;;;5432391;27;20035;-86
2024/04/14 15:03:36;;;;;;;2.75;0.90;;;;;;;;;;5432890;27;20010;-88
2024/04/14 15:06:13;;;;;;;3.47;1.00;;;;;;;;;;5501248;22;20019;-78
2024/04/14 15:08:54;;;;;;;2.85;1.02;;;;;;;;;;5316964;27;20402;-78
2024/04/14 15:11:47;;;;;;;3.70;1.00;;;;;;;;;;5363885;27;20045;-77
2024/04/14 15:14:21;;;;;;;2.75;0.88;;;;;;;;;;5334972;27;20020;-79
2024/04/14 15:16:56;;;;;;;;;;;;;;;;;;5368329;22;20028;-78
2024/04/14 15:19:33;;;;;;;4.78;0.90;;;;;;;;;;5372068;27;19925;-79
2024/04/14 15:22:13;;;;;;;3.88;0.98;;;;;;;;;;5379820;27;20013;-81
2024/04/14 15:24:48;;;;;;;5.18;1.05;;;;;;;;;;5367147;27;20172;-80
2024/04/14 15:27:28;;;;;;;3.88;1.13;;;;;;;;;;5359151;27;20012;-81
2024/04/14 15:30:02;;;;;;;4.90;1.27;;;;;;;;;;5360472;27;20505;-79
2024/04/14 15:32:40;;;;;;;4.15;1.15;;;;;;;;;;5347426;27;20065;-79
2024/04/14 15:35:18;;;;;;;3.40;1.05;;;;;;;;;;5356827;27;20358;-80
2024/04/14 15:37:57;;;;;;;4.85;1.08;;;;;;;;;;5388440;27;20000;-80
2024/04/14 15:40:31;;;;;;;2.88;1.00;;;;;;;;;;5335551;27;20069;-81
2024/04/14 15:43:12;;;;;;;3.60;1.02;;;;;;;;;;5350749;27;20009;-81
2024/04/14 15:45:44;;;;;;;2.83;0.88;;;;;;;;;;5360698;27;20020;-80
2024/04/14 15:48:19;;;;;;;4.13;1.13;;;;;;;;;;5376120;21;20005;-79
2024/04/14 15:51:03;;;;;;;3.35;1.08;;;;;;;;;;5381153;27;20054;-80
2024/04/14 15:53:58;;;;;;;3.25;1.23;;;;;;;;;;5401926;27;20011;-83
2024/04/14 15:56:33;;;;;;;3.58;1.00;;;;;;;;;;5391738;27;20027;-86